Terminal Aerodrome Forecast
Issued by NWS

Home | Current Version | Previous Version | Graphics & Text | Print | Product List | Glossary On
Versions: 1 2 3 4 5 6 7 8 9 10 11 12 13 14
963
FTUS42 KMHX 060536
TAFOAJ
TAF
KOAJ 060536Z 0606/0706 01004KT P6SM SKC
      TEMPO 0608/0612 4SM BR SCT001
     FM061600 02006KT P6SM SCT070 SCT250
     FM062200 03006KT P6SM BKN070
      AMD LTD TO CLD VIS AND WIND=

USA.gov is the U.S. government's official web portal to all federal, state and local government web resources and services.